sensor_id;sensor_type;location;lat;lon;timestamp;P1;durP1;ratioP1;P2;durP2;ratioP2
17091;SDS011;8661;45.700;4.880;2023-08-20T00:01:37;4.57;;;4.17;;
17091;SDS011;8661;45.700;4.880;2023-08-20T00:04:04;5.03;;;4.23;;
17091;SDS011;8661;45.700;4.880;2023-08-20T00:06:32;7.00;;;4.57;;
17091;SDS011;8661;45.700;4.880;2023-08-20T00:09:01;5.70;;;4.23;;
17091;SDS011;8661;45.700;4.880;2023-08-20T00:11:28;5.00;;;4.33;;
17091;SDS011;8661;45.700;4.880;2023-08-20T00:13:56;6.60;;;4.00;;
17091;SDS011;8661;45.700;4.880;2023-08-20T00:16:23;9.03;;;4.50;;
17091;SDS011;8661;45.700;4.880;2023-08-20T00:18:50;5.37;;;4.30;;
17091;SDS011;8661;45.700;4.880;2023-08-20T00:21:17;7.33;;;4.20;;
17091;SDS011;8661;45.700;4.880;2023-08-20T00:23:45;6.17;;;4.23;;
17091;SDS011;8661;45.700;4.880;2023-08-20T00:26:14;8.67;;;4.60;;
17091;SDS011;8661;45.700;4.880;2023-08-20T00:28:41;6.37;;;4.67;;
17091;SDS011;8661;45.700;4.880;2023-08-20T00:31:08;6.20;;;4.70;;
17091;SDS011;8661;45.700;4.880;2023-08-20T00:33:34;6.73;;;4.00;;
17091;SDS011;8661;45.700;4.880;2023-08-20T00:36:01;5.27;;;4.40;;
17091;SDS011;8661;45.700;4.880;2023-08-20T00:38:28;5.17;;;4.43;;
17091;SDS011;8661;45.700;4.880;2023-08-20T00:40:55;8.37;;;4.17;;
17091;SDS011;8661;45.700;4.880;2023-08-20T00:43:24;6.87;;;4.40;;
17091;SDS011;8661;45.700;4.880;2023-08-20T00:45:50;8.57;;;4.23;;
17091;SDS011;8661;45.700;4.880;2023-08-20T00:48:18;5.87;;;4.53;;
17091;SDS011;8661;45.700;4.880;2023-08-20T00:50:45;7.40;;;4.00;;
17091;SDS011;8661;45.700;4.880;2023-08-20T00:53:12;8.43;;;4.50;;
17091;SDS011;8661;45.700;4.880;2023-08-20T00:55:41;5.80;;;4.00;;
17091;SDS011;8661;45.700;4.880;2023-08-20T00:58:08;7.33;;;4.40;;
17091;SDS011;8661;45.700;4.880;2023-08-20T01:00:37;10.03;;;4.60;;
17091;SDS011;8661;45.700;4.880;2023-08-20T01:03:04;7.30;;;4.27;;
17091;SDS011;8661;45.700;4.880;2023-08-20T01:05:32;6.97;;;4.13;;
17091;SDS011;8661;45.700;4.880;2023-08-20T01:08:09;5.27;;;4.30;;
17091;SDS011;8661;45.700;4.880;2023-08-20T01:10:47;8.83;;;4.70;;
17091;SDS011;8661;45.700;4.880;2023-08-20T01:13:19;8.10;;;4.00;;
17091;SDS011;8661;45.700;4.880;2023-08-20T01:15:47;6.80;;;4.63;;
17091;SDS011;8661;45.700;4.880;2023-08-20T01:18:14;5.00;;;4.37;;
17091;SDS011;8661;45.700;4.880;2023-08-20T01:20:41;11.53;;;4.60;;
17091;SDS011;8661;45.700;4.880;2023-08-20T01:23:24;6.70;;;4.47;;
17091;SDS011;8661;45.700;4.880;2023-08-20T01:29:09;5.13;;;3.93;;
17091;SDS011;8661;45.700;4.880;2023-08-20T01:31:37;6.33;;;4.80;;
17091;SDS011;8661;45.700;4.880;2023-08-20T01:34:04;6.43;;;4.53;;
17091;SDS011;8661;45.700;4.880;2023-08-20T01:36:31;5.70;;;4.20;;
17091;SDS011;8661;45.700;4.880;2023-08-20T01:38:58;9.10;;;4.50;;
17091;SDS011;8661;45.700;4.880;2023-08-20T01:41:25;8.27;;;4.73;;
17091;SDS011;8661;45.700;4.880;2023-08-20T01:43:52;7.57;;;4.00;;
17091;SDS011;8661;45.700;4.880;2023-08-20T01:46:20;7.80;;;5.17;;
17091;SDS011;8661;45.700;4.880;2023-08-20T01:48:47;7.03;;;4.53;;
17091;SDS011;8661;45.700;4.880;2023-08-20T01:51:14;5.90;;;4.37;;
17091;SDS011;8661;45.700;4.880;2023-08-20T01:53:41;5.10;;;4.57;;
17091;SDS011;8661;45.700;4.880;2023-08-20T01:56:10;8.43;;;4.83;;
17091;SDS011;8661;45.700;4.880;2023-08-20T01:58:38;7.13;;;4.80;;
17091;SDS011;8661;45.700;4.880;2023-08-20T02:01:05;6.07;;;4.30;;
17091;SDS011;8661;45.700;4.880;2023-08-20T02:03:35;9.10;;;4.47;;
17091;SDS011;8661;45.700;4.880;2023-08-20T02:06:02;7.57;;;4.60;;
17091;SDS011;8661;45.700;4.880;2023-08-20T02:08:29;6.73;;;4.13;;
17091;SDS011;8661;45.700;4.880;2023-08-20T02:10:59;8.17;;;4.80;;
17091;SDS011;8661;45.700;4.880;2023-08-20T02:13:27;9.67;;;4.77;;
17091;SDS011;8661;45.700;4.880;2023-08-20T02:15:58;8.53;;;4.60;;
17091;SDS011;8661;45.700;4.880;2023-08-20T02:18:25;7.47;;;4.10;;
17091;SDS011;8661;45.700;4.880;2023-08-20T02:20:54;9.87;;;4.90;;
17091;SDS011;8661;45.700;4.880;2023-08-20T02:23:20;7.60;;;4.77;;
17091;SDS011;8661;45.700;4.880;2023-08-20T02:25:48;6.53;;;4.37;;
17091;SDS011;8661;45.700;4.880;2023-08-20T02:28:15;9.90;;;5.03;;
17091;SDS011;8661;45.700;4.880;2023-08-20T02:30:42;7.20;;;4.77;;
17091;SDS011;8661;45.700;4.880;2023-08-20T02:33:10;5.80;;;4.10;;
17091;SDS011;8661;45.700;4.880;2023-08-20T02:35:37;7.03;;;4.47;;
17091;SDS011;8661;45.700;4.880;2023-08-20T02:38:05;8.33;;;4.50;;
17091;SDS011;8661;45.700;4.880;2023-08-20T02:40:38;6.17;;;4.73;;
17091;SDS011;8661;45.700;4.880;2023-08-20T02:43:06;7.63;;;5.30;;
17091;SDS011;8661;45.700;4.880;2023-08-20T02:45:33;7.67;;;4.53;;
17091;SDS011;8661;45.700;4.880;2023-08-20T02:48:06;6.73;;;4.80;;
17091;SDS011;8661;45.700;4.880;2023-08-20T02:50:33;7.00;;;5.60;;
17091;SDS011;8661;45.700;4.880;2023-08-20T02:52:59;6.27;;;4.90;;
17091;SDS011;8661;45.700;4.880;2023-08-20T02:55:28;6.53;;;4.70;;
17091;SDS011;8661;45.700;4.880;2023-08-20T02:57:55;8.30;;;4.70;;
17091;SDS011;8661;45.700;4.880;2023-08-20T03:00:21;9.60;;;5.27;;
17091;SDS011;8661;45.700;4.880;2023-08-20T03:02:48;5.00;;;4.50;;
17091;SDS011;8661;45.700;4.880;2023-08-20T03:05:15;5.80;;;4.53;;
17091;SDS011;8661;45.700;4.880;2023-08-20T03:07:42;6.53;;;4.67;;
17091;SDS011;8661;45.700;4.880;2023-08-20T03:10:09;6.93;;;5.17;;
17091;SDS011;8661;45.700;4.880;2023-08-20T03:12:38;6.17;;;5.20;;
17091;SDS011;8661;45.700;4.880;2023-08-20T03:15:06;6.33;;;5.20;;
17091;SDS011;8661;45.700;4.880;2023-08-20T03:17:33;8.87;;;5.37;;
17091;SDS011;8661;45.700;4.880;2023-08-20T03:20:00;7.80;;;4.87;;
17091;SDS011;8661;45.700;4.880;2023-08-20T03:22:31;7.80;;;5.23;;
17091;SDS011;8661;45.700;4.880;2023-08-20T03:24:58;9.43;;;5.03;;
17091;SDS011;8661;45.700;4.880;2023-08-20T03:27:24;5.90;;;4.80;;
17091;SDS011;8661;45.700;4.880;2023-08-20T03:29:53;8.73;;;4.80;;
17091;SDS011;8661;45.700;4.880;2023-08-20T03:32:20;9.20;;;5.43;;
17091;SDS011;8661;45.700;4.880;2023-08-20T03:34:48;6.13;;;5.07;;
17091;SDS011;8661;45.700;4.880;2023-08-20T03:37:15;7.03;;;4.80;;
17091;SDS011;8661;45.700;4.880;2023-08-20T03:39:42;7.33;;;5.27;;
17091;SDS011;8661;45.700;4.880;2023-08-20T03:42:08;7.00;;;4.70;;
17091;SDS011;8661;45.700;4.880;2023-08-20T03:44:35;9.37;;;4.90;;
17091;SDS011;8661;45.700;4.880;2023-08-20T03:47:04;7.70;;;4.87;;
17091;SDS011;8661;45.700;4.880;2023-08-20T03:49:31;6.87;;;5.30;;
17091;SDS011;8661;45.700;4.880;2023-08-20T03:51:58;8.40;;;5.80;;
17091;SDS011;8661;45.700;4.880;2023-08-20T03:54:26;6.87;;;5.40;;
17091;SDS011;8661;45.700;4.880;2023-08-20T03:56:53;5.73;;;4.90;;
17091;SDS011;8661;45.700;4.880;2023-08-20T03:59:20;8.73;;;5.40;;
17091;SDS011;8661;45.700;4.880;2023-08-20T04:01:47;7.67;;;5.53;;
17091;SDS011;8661;45.700;4.880;2023-08-20T04:04:16;6.47;;;4.97;;
17091;SDS011;8661;45.700;4.880;2023-08-20T04:06:42;5.53;;;4.90;;
17091;SDS011;8661;45.700;4.880;2023-08-20T04:09:09;6.27;;;4.83;;
17091;SDS011;8661;45.700;4.880;2023-08-20T04:11:36;6.83;;;4.63;;
17091;SDS011;8661;45.700;4.880;2023-08-20T04:14:06;7.97;;;5.03;;
17091;SDS011;8661;45.700;4.880;2023-08-20T04:16:35;9.27;;;4.87;;
17091;SDS011;8661;45.700;4.880;2023-08-20T04:19:02;5.53;;;4.60;;
17091;SDS011;8661;45.700;4.880;2023-08-20T04:21:30;7.33;;;5.47;;
17091;SDS011;8661;45.700;4.880;2023-08-20T04:23:57;5.57;;;4.73;;
17091;SDS011;8661;45.700;4.880;2023-08-20T04:26:24;5.20;;;4.30;;
17091;SDS011;8661;45.700;4.880;2023-08-20T04:28:51;8.50;;;4.80;;
17091;SDS011;8661;45.700;4.880;2023-08-20T04:31:18;8.30;;;4.57;;
17091;SDS011;8661;45.700;4.880;2023-08-20T04:33:45;5.80;;;5.13;;
17091;SDS011;8661;45.700;4.880;2023-08-20T04:36:12;6.83;;;5.03;;
17091;SDS011;8661;45.700;4.880;2023-08-20T04:38:40;6.60;;;4.90;;
17091;SDS011;8661;45.700;4.880;2023-08-20T04:41:07;8.13;;;5.00;;
17091;SDS011;8661;45.700;4.880;2023-08-20T04:43:34;8.43;;;4.90;;
17091;SDS011;8661;45.700;4.880;2023-08-20T04:46:00;8.40;;;5.10;;
17091;SDS011;8661;45.700;4.880;2023-08-20T04:48:27;5.97;;;4.80;;
17091;SDS011;8661;45.700;4.880;2023-08-20T04:50:54;5.40;;;4.53;;
17091;SDS011;8661;45.700;4.880;2023-08-20T04:53:21;7.40;;;5.23;;
17091;SDS011;8661;45.700;4.880;2023-08-20T04:55:49;5.77;;;5.13;;
17091;SDS011;8661;45.700;4.880;2023-08-20T04:58:16;8.00;;;5.00;;
17091;SDS011;8661;45.700;4.880;2023-08-20T05:00:43;6.63;;;5.00;;
17091;SDS011;8661;45.700;4.880;2023-08-20T05:03:10;6.40;;;5.13;;
17091;SDS011;8661;45.700;4.880;2023-08-20T05:05:37;7.53;;;5.07;;
17091;SDS011;8661;45.700;4.880;2023-08-20T05:08:04;6.20;;;5.17;;
17091;SDS011;8661;45.700;4.880;2023-08-20T05:10:31;8.40;;;4.90;;
17091;SDS011;8661;45.700;4.880;2023-08-20T05:12:59;7.73;;;5.27;;
17091;SDS011;8661;45.700;4.880;2023-08-20T05:15:26;7.03;;;4.77;;
17091;SDS011;8661;45.700;4.880;2023-08-20T05:17:53;6.47;;;4.70;;
17091;SDS011;8661;45.700;4.880;2023-08-20T05:20:20;5.93;;;5.07;;
17091;SDS011;8661;45.700;4.880;2023-08-20T05:22:46;6.93;;;4.83;;
17091;SDS011;8661;45.700;4.880;2023-08-20T05:25:13;7.63;;;4.97;;
17091;SDS011;8661;45.700;4.880;2023-08-20T05:27:40;5.50;;;5.00;;
17091;SDS011;8661;45.700;4.880;2023-08-20T05:30:09;7.47;;;4.77;;
17091;SDS011;8661;45.700;4.880;2023-08-20T05:32:36;9.80;;;5.00;;
17091;SDS011;8661;45.700;4.880;2023-08-20T05:35:06;5.20;;;4.40;;
17091;SDS011;8661;45.700;4.880;2023-08-20T05:37:33;6.40;;;4.73;;
17091;SDS011;8661;45.700;4.880;2023-08-20T05:40:00;4.97;;;4.40;;
17091;SDS011;8661;45.700;4.880;2023-08-20T05:42:27;6.97;;;5.20;;
17091;SDS011;8661;45.700;4.880;2023-08-20T05:44:54;8.40;;;5.00;;
17091;SDS011;8661;45.700;4.880;2023-08-20T05:47:22;9.33;;;4.83;;
17091;SDS011;8661;45.700;4.880;2023-08-20T05:49:49;8.63;;;4.80;;
17091;SDS011;8661;45.700;4.880;2023-08-20T05:52:16;8.53;;;5.27;;
17091;SDS011;8661;45.700;4.880;2023-08-20T05:54:43;13.80;;;5.17;;
17091;SDS011;8661;45.700;4.880;2023-08-20T05:57:10;7.37;;;5.13;;
17091;SDS011;8661;45.700;4.880;2023-08-20T05:59:37;6.47;;;4.37;;
17091;SDS011;8661;45.700;4.880;2023-08-20T06:02:04;5.97;;;4.80;;
17091;SDS011;8661;45.700;4.880;2023-08-20T06:04:32;8.20;;;4.80;;
17091;SDS011;8661;45.700;4.880;2023-08-20T06:06:59;6.87;;;4.50;;
17091;SDS011;8661;45.700;4.880;2023-08-20T06:09:26;11.80;;;4.67;;
17091;SDS011;8661;45.700;4.880;2023-08-20T06:11:53;7.63;;;4.60;;
17091;SDS011;8661;45.700;4.880;2023-08-20T06:14:20;5.97;;;4.27;;
17091;SDS011;8661;45.700;4.880;2023-08-20T06:16:46;6.23;;;4.80;;
17091;SDS011;8661;45.700;4.880;2023-08-20T06:19:13;5.00;;;4.40;;
17091;SDS011;8661;45.700;4.880;2023-08-20T06:21:41;8.53;;;4.10;;
17091;SDS011;8661;45.700;4.880;2023-08-20T06:24:08;6.03;;;4.70;;
17091;SDS011;8661;45.700;4.880;2023-08-20T06:26:35;7.67;;;4.87;;
17091;SDS011;8661;45.700;4.880;2023-08-20T06:29:02;6.47;;;5.17;;
17091;SDS011;8661;45.700;4.880;2023-08-20T06:31:29;8.13;;;5.03;;
17091;SDS011;8661;45.700;4.880;2023-08-20T06:33:56;5.57;;;4.47;;
17091;SDS011;8661;45.700;4.880;2023-08-20T06:36:23;8.83;;;4.87;;
17091;SDS011;8661;45.700;4.880;2023-08-20T06:38:51;6.13;;;4.70;;
17091;SDS011;8661;45.700;4.880;2023-08-20T06:41:18;7.07;;;5.30;;
17091;SDS011;8661;45.700;4.880;2023-08-20T06:43:45;6.15;;;5.38;;
17091;SDS011;8661;45.700;4.880;2023-08-20T06:46:12;7.47;;;4.37;;
17091;SDS011;8661;45.700;4.880;2023-08-20T06:48:38;6.87;;;4.97;;
17091;SDS011;8661;45.700;4.880;2023-08-20T06:51:10;6.27;;;4.40;;
17091;SDS011;8661;45.700;4.880;2023-08-20T06:53:38;6.10;;;4.73;;
17091;SDS011;8661;45.700;4.880;2023-08-20T06:56:07;9.63;;;4.40;;
17091;SDS011;8661;45.700;4.880;2023-08-20T06:58:34;6.37;;;4.27;;
17091;SDS011;8661;45.700;4.880;2023-08-20T07:01:01;8.93;;;5.40;;
17091;SDS011;8661;45.700;4.880;2023-08-20T07:03:33;7.40;;;4.37;;
17091;SDS011;8661;45.700;4.880;2023-08-20T07:06:00;4.47;;;3.90;;
17091;SDS011;8661;45.700;4.880;2023-08-20T07:08:27;4.30;;;3.90;;
17091;SDS011;8661;45.700;4.880;2023-08-20T07:10:54;8.60;;;4.67;;
17091;SDS011;8661;45.700;4.880;2023-08-20T07:13:22;7.40;;;4.20;;
17091;SDS011;8661;45.700;4.880;2023-08-20T07:15:49;4.80;;;4.13;;
17091;SDS011;8661;45.700;4.880;2023-08-20T07:18:17;8.80;;;5.63;;
17091;SDS011;8661;45.700;4.880;2023-08-20T07:20:44;7.27;;;4.83;;
17091;SDS011;8661;45.700;4.880;2023-08-20T07:23:11;8.00;;;4.67;;
17091;SDS011;8661;45.700;4.880;2023-08-20T07:25:38;23.57;;;5.33;;
17091;SDS011;8661;45.700;4.880;2023-08-20T07:28:06;8.00;;;4.80;;
17091;SDS011;8661;45.700;4.880;2023-08-20T07:30:35;7.17;;;4.70;;
17091;SDS011;8661;45.700;4.880;2023-08-20T07:33:02;5.83;;;4.47;;
17091;SDS011;8661;45.700;4.880;2023-08-20T07:35:30;4.90;;;4.40;;
17091;SDS011;8661;45.700;4.880;2023-08-20T07:37:57;7.37;;;4.63;;
17091;SDS011;8661;45.700;4.880;2023-08-20T07:40:23;6.20;;;4.30;;
17091;SDS011;8661;45.700;4.880;2023-08-20T07:42:50;7.40;;;4.50;;
17091;SDS011;8661;45.700;4.880;2023-08-20T07:45:17;6.63;;;4.67;;
17091;SDS011;8661;45.700;4.880;2023-08-20T07:47:46;9.75;;;4.63;;
17091;SDS011;8661;45.700;4.880;2023-08-20T07:50:12;4.73;;;4.23;;
17091;SDS011;8661;45.700;4.880;2023-08-20T07:52:39;6.50;;;4.30;;
17091;SDS011;8661;45.700;4.880;2023-08-20T07:55:08;5.05;;;4.55;;
17091;SDS011;8661;45.700;4.880;2023-08-20T07:57:35;6.80;;;3.97;;
17091;SDS011;8661;45.700;4.880;2023-08-20T08:00:02;4.78;;;4.28;;
17091;SDS011;8661;45.700;4.880;2023-08-20T08:02:30;5.97;;;4.32;;
17091;SDS011;8661;45.700;4.880;2023-08-20T08:04:58;7.93;;;4.50;;
17091;SDS011;8661;45.700;4.880;2023-08-20T08:07:25;4.63;;;3.90;;
17091;SDS011;8661;45.700;4.880;2023-08-20T08:09:52;5.13;;;4.30;;
17091;SDS011;8661;45.700;4.880;2023-08-20T08:12:19;4.70;;;4.20;;
17091;SDS011;8661;45.700;4.880;2023-08-20T08:14:46;7.28;;;4.40;;
17091;SDS011;8661;45.700;4.880;2023-08-20T08:17:13;6.97;;;4.45;;
17091;SDS011;8661;45.700;4.880;2023-08-20T08:19:40;7.63;;;4.50;;
17091;SDS011;8661;45.700;4.880;2023-08-20T08:22:08;5.95;;;4.50;;
17091;SDS011;8661;45.700;4.880;2023-08-20T08:24:35;7.53;;;4.53;;
17091;SDS011;8661;45.700;4.880;2023-08-20T08:27:02;5.32;;;4.18;;
17091;SDS011;8661;45.700;4.880;2023-08-20T08:29:29;4.43;;;4.03;;
17091;SDS011;8661;45.700;4.880;2023-08-20T08:31:56;5.20;;;4.43;;
17091;SDS011;8661;45.700;4.880;2023-08-20T08:34:22;6.47;;;4.63;;
17091;SDS011;8661;45.700;4.880;2023-08-20T08:36:49;6.72;;;4.43;;
17091;SDS011;8661;45.700;4.880;2023-08-20T08:39:17;6.07;;;3.92;;
17091;SDS011;8661;45.700;4.880;2023-08-20T08:41:44;7.32;;;4.70;;
17091;SDS011;8661;45.700;4.880;2023-08-20T08:44:17;5.57;;;4.63;;
17091;SDS011;8661;45.700;4.880;2023-08-20T08:46:43;7.32;;;4.28;;
17091;SDS011;8661;45.700;4.880;2023-08-20T08:49:12;5.40;;;4.50;;
17091;SDS011;8661;45.700;4.880;2023-08-20T08:51:39;4.78;;;4.22;;
17091;SDS011;8661;45.700;4.880;2023-08-20T08:54:10;8.18;;;4.15;;
17091;SDS011;8661;45.700;4.880;2023-08-20T08:56:41;4.47;;;4.07;;
17091;SDS011;8661;45.700;4.880;2023-08-20T08:59:07;8.57;;;4.65;;
17091;SDS011;8661;45.700;4.880;2023-08-20T09:01:37;6.07;;;4.30;;
17091;SDS011;8661;45.700;4.880;2023-08-20T09:04:04;4.93;;;3.95;;
17091;SDS011;8661;45.700;4.880;2023-08-20T09:06:43;5.13;;;4.43;;
17091;SDS011;8661;45.700;4.880;2023-08-20T09:09:11;4.68;;;4.20;;
17091;SDS011;8661;45.700;4.880;2023-08-20T09:11:38;4.88;;;4.03;;
17091;SDS011;8661;45.700;4.880;2023-08-20T09:14:07;9.15;;;4.68;;
17091;SDS011;8661;45.700;4.880;2023-08-20T09:16:33;6.82;;;4.28;;
17091;SDS011;8661;45.700;4.880;2023-08-20T09:19:01;5.82;;;4.30;;
17091;SDS011;8661;45.700;4.880;2023-08-20T09:21:29;5.72;;;4.70;;
17091;SDS011;8661;45.700;4.880;2023-08-20T09:23:56;10.50;;;4.70;;
17091;SDS011;8661;45.700;4.880;2023-08-20T09:26:23;7.47;;;4.50;;
17091;SDS011;8661;45.700;4.880;2023-08-20T09:28:53;3.90;;;3.53;;
17091;SDS011;8661;45.700;4.880;2023-08-20T09:31:22;4.78;;;4.30;;
17091;SDS011;8661;45.700;4.880;2023-08-20T09:34:03;4.80;;;4.30;;
17091;SDS011;8661;45.700;4.880;2023-08-20T09:36:30;5.50;;;4.22;;
17091;SDS011;8661;45.700;4.880;2023-08-20T09:38:58;6.93;;;4.60;;
17091;SDS011;8661;45.700;4.880;2023-08-20T09:41:25;6.90;;;4.15;;
17091;SDS011;8661;45.700;4.880;2023-08-20T09:43:54;7.70;;;4.30;;
17091;SDS011;8661;45.700;4.880;2023-08-20T09:46:23;6.90;;;4.30;;
17091;SDS011;8661;45.700;4.880;2023-08-20T09:48:51;5.25;;;4.60;;
17091;SDS011;8661;45.700;4.880;2023-08-20T09:51:23;4.40;;;3.90;;
17091;SDS011;8661;45.700;4.880;2023-08-20T09:53:53;5.97;;;4.47;;
17091;SDS011;8661;45.700;4.880;2023-08-20T09:56:27;5.22;;;4.10;;
17091;SDS011;8661;45.700;4.880;2023-08-20T09:58:56;8.50;;;4.82;;
17091;SDS011;8661;45.700;4.880;2023-08-20T10:01:24;6.47;;;4.50;;
17091;SDS011;8661;45.700;4.880;2023-08-20T10:03:51;7.82;;;5.10;;
17091;SDS011;8661;45.700;4.880;2023-08-20T10:06:18;6.80;;;3.72;;
17091;SDS011;8661;45.700;4.880;2023-08-20T10:08:46;10.40;;;6.25;;
17091;SDS011;8661;45.700;4.880;2023-08-20T10:11:14;6.07;;;4.95;;
17091;SDS011;8661;45.700;4.880;2023-08-20T10:13:41;4.78;;;4.05;;
17091;SDS011;8661;45.700;4.880;2023-08-20T10:16:09;5.35;;;3.97;;
17091;SDS011;8661;45.700;4.880;2023-08-20T10:18:38;5.35;;;4.10;;
17091;SDS011;8661;45.700;4.880;2023-08-20T10:21:05;7.63;;;4.47;;
17091;SDS011;8661;45.700;4.880;2023-08-20T10:23:34;6.07;;;4.60;;
17091;SDS011;8661;45.700;4.880;2023-08-20T10:26:08;6.05;;;3.97;;
17091;SDS011;8661;45.700;4.880;2023-08-20T10:28:35;5.88;;;4.13;;
17091;SDS011;8661;45.700;4.880;2023-08-20T10:31:03;7.70;;;3.45;;
17091;SDS011;8661;45.700;4.880;2023-08-20T10:33:33;10.85;;;4.47;;
17091;SDS011;8661;45.700;4.880;2023-08-20T10:36:07;5.20;;;3.90;;
17091;SDS011;8661;45.700;4.880;2023-08-20T10:38:36;7.38;;;3.40;;
17091;SDS011;8661;45.700;4.880;2023-08-20T10:41:05;6.88;;;3.83;;
17091;SDS011;8661;45.700;4.880;2023-08-20T10:43:33;9.13;;;3.63;;
17091;SDS011;8661;45.700;4.880;2023-08-20T10:46:05;4.93;;;3.70;;
17091;SDS011;8661;45.700;4.880;2023-08-20T10:48:35;6.43;;;4.05;;
17091;SDS011;8661;45.700;4.880;2023-08-20T10:51:09;6.75;;;4.90;;
17091;SDS011;8661;45.700;4.880;2023-08-20T10:53:37;5.97;;;3.50;;
17091;SDS011;8661;45.700;4.880;2023-08-20T10:56:12;4.95;;;3.97;;
17091;SDS011;8661;45.700;4.880;2023-08-20T10:58:40;6.70;;;3.70;;
17091;SDS011;8661;45.700;4.880;2023-08-20T11:01:12;3.90;;;3.60;;
17091;SDS011;8661;45.700;4.880;2023-08-20T11:03:41;6.35;;;3.90;;
17091;SDS011;8661;45.700;4.880;2023-08-20T11:06:09;5.70;;;3.50;;
17091;SDS011;8661;45.700;4.880;2023-08-20T11:08:36;6.57;;;3.53;;
17091;SDS011;8661;45.700;4.880;2023-08-20T11:11:04;4.10;;;3.70;;
17091;SDS011;8661;45.700;4.880;2023-08-20T11:13:33;7.88;;;3.88;;
17091;SDS011;8661;45.700;4.880;2023-08-20T11:16:01;7.03;;;4.00;;
17091;SDS011;8661;45.700;4.880;2023-08-20T11:18:29;7.35;;;4.40;;
17091;SDS011;8661;45.700;4.880;2023-08-20T11:20:59;7.32;;;3.80;;
17091;SDS011;8661;45.700;4.880;2023-08-20T11:23:26;5.90;;;3.63;;
17091;SDS011;8661;45.700;4.880;2023-08-20T11:25:53;6.75;;;3.65;;
17091;SDS011;8661;45.700;4.880;2023-08-20T11:28:20;6.65;;;4.50;;
17091;SDS011;8661;45.700;4.880;2023-08-20T11:30:47;4.80;;;3.85;;
17091;SDS011;8661;45.700;4.880;2023-08-20T11:33:15;10.63;;;3.60;;
17091;SDS011;8661;45.700;4.880;2023-08-20T11:35:43;4.72;;;3.28;;
17091;SDS011;8661;45.700;4.880;2023-08-20T11:38:11;4.97;;;3.63;;
17091;SDS011;8661;45.700;4.880;2023-08-20T11:40:39;5.88;;;3.60;;
17091;SDS011;8661;45.700;4.880;2023-08-20T11:43:06;4.00;;;3.60;;
17091;SDS011;8661;45.700;4.880;2023-08-20T11:45:43;5.40;;;3.30;;
17091;SDS011;8661;45.700;4.880;2023-08-20T11:48:11;6.15;;;3.97;;
17091;SDS011;8661;45.700;4.880;2023-08-20T11:50:38;8.10;;;3.65;;
17091;SDS011;8661;45.700;4.880;2023-08-20T11:53:05;5.35;;;3.28;;
17091;SDS011;8661;45.700;4.880;2023-08-20T11:55:34;5.38;;;3.67;;
17091;SDS011;8661;45.700;4.880;2023-08-20T11:58:01;3.95;;;3.15;;
17091;SDS011;8661;45.700;4.880;2023-08-20T12:00:29;4.35;;;3.08;;
17091;SDS011;8661;45.700;4.880;2023-08-20T12:02:57;4.57;;;3.20;;
17091;SDS011;8661;45.700;4.880;2023-08-20T12:05:26;6.72;;;3.55;;
17091;SDS011;8661;45.700;4.880;2023-08-20T12:07:56;4.63;;;3.20;;
17091;SDS011;8661;45.700;4.880;2023-08-20T12:10:24;6.47;;;3.40;;
17091;SDS011;8661;45.700;4.880;2023-08-20T12:12:53;9.85;;;4.07;;
17091;SDS011;8661;45.700;4.880;2023-08-20T12:15:21;6.85;;;3.65;;
17091;SDS011;8661;45.700;4.880;2023-08-20T12:17:55;7.93;;;3.53;;
17091;SDS011;8661;45.700;4.880;2023-08-20T12:20:26;6.70;;;4.07;;
17091;SDS011;8661;45.700;4.880;2023-08-20T12:22:54;7.75;;;3.85;;
17091;SDS011;8661;45.700;4.880;2023-08-20T12:25:24;5.38;;;3.90;;
17091;SDS011;8661;45.700;4.880;2023-08-20T12:27:51;8.02;;;3.92;;
17091;SDS011;8661;45.700;4.880;2023-08-20T12:30:19;5.05;;;3.80;;
17091;SDS011;8661;45.700;4.880;2023-08-20T12:32:46;9.10;;;3.33;;
17091;SDS011;8661;45.700;4.880;2023-08-20T12:35:13;7.30;;;3.47;;
17091;SDS011;8661;45.700;4.880;2023-08-20T12:37:40;7.65;;;3.85;;
17091;SDS011;8661;45.700;4.880;2023-08-20T12:40:07;6.28;;;3.42;;
17091;SDS011;8661;45.700;4.880;2023-08-20T12:42:36;7.93;;;3.65;;
17091;SDS011;8661;45.700;4.880;2023-08-20T12:45:05;6.40;;;3.33;;
17091;SDS011;8661;45.700;4.880;2023-08-20T12:47:33;7.65;;;3.25;;
17091;SDS011;8661;45.700;4.880;2023-08-20T12:50:00;4.93;;;3.72;;
17091;SDS011;8661;45.700;4.880;2023-08-20T12:52:29;9.82;;;3.40;;
17091;SDS011;8661;45.700;4.880;2023-08-20T12:54:56;5.50;;;3.30;;
17091;SDS011;8661;45.700;4.880;2023-08-20T12:57:23;5.20;;;3.30;;
17091;SDS011;8661;45.700;4.880;2023-08-20T12:59:50;7.00;;;3.30;;
17091;SDS011;8661;45.700;4.880;2023-08-20T13:02:19;9.02;;;3.25;;
17091;SDS011;8661;45.700;4.880;2023-08-20T13:04:46;9.27;;;3.50;;
17091;SDS011;8661;45.700;4.880;2023-08-20T13:07:15;6.53;;;3.33;;
17091;SDS011;8661;45.700;4.880;2023-08-20T13:09:43;9.38;;;3.38;;
17091;SDS011;8661;45.700;4.880;2023-08-20T13:12:10;5.00;;;3.38;;
17091;SDS011;8661;45.700;4.880;2023-08-20T13:14:38;6.00;;;3.92;;
17091;SDS011;8661;45.700;4.880;2023-08-20T13:17:07;6.68;;;3.10;;
17091;SDS011;8661;45.700;4.880;2023-08-20T13:19:36;4.57;;;3.13;;
17091;SDS011;8661;45.700;4.880;2023-08-20T13:22:03;6.40;;;3.63;;
17091;SDS011;8661;45.700;4.880;2023-08-20T13:24:30;6.30;;;3.40;;
17091;SDS011;8661;45.700;4.880;2023-08-20T13:26:57;7.82;;;3.60;;
17091;SDS011;8661;45.700;4.880;2023-08-20T13:29:24;6.13;;;3.63;;
17091;SDS011;8661;45.700;4.880;2023-08-20T13:31:51;5.00;;;3.47;;
17091;SDS011;8661;45.700;4.880;2023-08-20T13:34:18;4.15;;;3.45;;
17091;SDS011;8661;45.700;4.880;2023-08-20T13:36:46;4.38;;;3.33;;
17091;SDS011;8661;45.700;4.880;2023-08-20T13:39:13;5.80;;;3.28;;
17091;SDS011;8661;45.700;4.880;2023-08-20T13:41:40;10.55;;;4.07;;
17091;SDS011;8661;45.700;4.880;2023-08-20T13:44:07;6.53;;;3.83;;
17091;SDS011;8661;45.700;4.880;2023-08-20T13:46:34;6.18;;;3.60;;
17091;SDS011;8661;45.700;4.880;2023-08-20T13:49:02;10.48;;;3.70;;
17091;SDS011;8661;45.700;4.880;2023-08-20T13:51:29;8.43;;;3.55;;
17091;SDS011;8661;45.700;4.880;2023-08-20T13:53:57;5.70;;;3.05;;
17091;SDS011;8661;45.700;4.880;2023-08-20T13:56:24;5.63;;;3.10;;
17091;SDS011;8661;45.700;4.880;2023-08-20T13:58:51;11.95;;;3.97;;
17091;SDS011;8661;45.700;4.880;2023-08-20T14:01:18;7.38;;;3.40;;
17091;SDS011;8661;45.700;4.880;2023-08-20T14:03:45;6.25;;;3.33;;
17091;SDS011;8661;45.700;4.880;2023-08-20T14:06:12;6.03;;;3.40;;
17091;SDS011;8661;45.700;4.880;2023-08-20T14:08:39;5.85;;;3.60;;
17091;SDS011;8661;45.700;4.880;2023-08-20T14:11:07;3.97;;;3.20;;
17091;SDS011;8661;45.700;4.880;2023-08-20T14:13:34;5.90;;;3.63;;
17091;SDS011;8661;45.700;4.880;2023-08-20T14:16:01;9.20;;;3.25;;
17091;SDS011;8661;45.700;4.880;2023-08-20T14:18:28;5.50;;;3.25;;
17091;SDS011;8661;45.700;4.880;2023-08-20T14:20:55;5.07;;;3.15;;
17091;SDS011;8661;45.700;4.880;2023-08-20T14:23:23;10.32;;;3.50;;
17091;SDS011;8661;45.700;4.880;2023-08-20T14:25:49;6.88;;;3.47;;
17091;SDS011;8661;45.700;4.880;2023-08-20T14:28:20;5.68;;;3.60;;
17091;SDS011;8661;45.700;4.880;2023-08-20T14:30:47;8.02;;;3.55;;
17091;SDS011;8661;45.700;4.880;2023-08-20T14:33:15;9.95;;;3.75;;
17091;SDS011;8661;45.700;4.880;2023-08-20T14:35:43;8.23;;;3.28;;
17091;SDS011;8661;45.700;4.880;2023-08-20T14:38:10;10.93;;;4.00;;
17091;SDS011;8661;45.700;4.880;2023-08-20T14:40:39;9.63;;;4.45;;
17091;SDS011;8661;45.700;4.880;2023-08-20T14:43:06;7.60;;;5.25;;
17091;SDS011;8661;45.700;4.880;2023-08-20T14:45:34;4.97;;;3.30;;
17091;SDS011;8661;45.700;4.880;2023-08-20T14:48:02;8.25;;;3.95;;
17091;SDS011;8661;45.700;4.880;2023-08-20T14:50:29;5.00;;;3.50;;
17091;SDS011;8661;45.700;4.880;2023-08-20T14:52:56;5.00;;;3.00;;
17091;SDS011;8661;45.700;4.880;2023-08-20T14:55:23;5.35;;;3.10;;
17091;SDS011;8661;45.700;4.880;2023-08-20T14:57:49;5.72;;;2.78;;
17091;SDS011;8661;45.700;4.880;2023-08-20T15:00:16;14.18;;;3.88;;
17091;SDS011;8661;45.700;4.880;2023-08-20T15:02:45;8.50;;;2.90;;
17091;SDS011;8661;45.700;4.880;2023-08-20T15:05:12;6.30;;;2.75;;
17091;SDS011;8661;45.700;4.880;2023-08-20T15:07:39;5.63;;;3.10;;